sensor_id;sensor_type;location;lat;lon;timestamp;pressure;altitude;pressure_sealevel;temperature;humidity
15405;BME280;7801;48.124;11.590;2022-09-09T00:04:41;95239.47;;;18.12;80.42
15405;BME280;7801;48.124;11.590;2022-09-09T00:12:53;95233.41;;;18.15;80.24
15405;BME280;7801;48.124;11.590;2022-09-09T00:15:37;95237.81;;;18.07;81.62
15405;BME280;7801;48.124;11.590;2022-09-09T00:18:21;95237.41;;;17.93;81.22
15405;BME280;7801;48.124;11.590;2022-09-09T00:21:13;95238.97;;;17.94;82.24
15405;BME280;7801;48.124;11.590;2022-09-09T00:24:00;95233.81;;;18.01;82.64
15405;BME280;7801;48.124;11.590;2022-09-09T00:31:41;95227.78;;;18.20;81.82
15405;BME280;7801;48.124;11.590;2022-09-09T00:34:20;95231.16;;;18.17;81.50
15405;BME280;7801;48.124;11.590;2022-09-09T00:36:49;95230.03;;;18.18;81.10
15405;BME280;7801;48.124;11.590;2022-09-09T00:39:37;95228.03;;;18.15;81.14
15405;BME280;7801;48.124;11.590;2022-09-09T00:42:23;95231.66;;;18.07;81.58
15405;BME280;7801;48.124;11.590;2022-09-09T00:45:02;95228.38;;;18.13;81.79
15405;BME280;7801;48.124;11.590;2022-09-09T00:47:51;95227.88;;;18.08;82.01
15405;BME280;7801;48.124;11.590;2022-09-09T00:55:56;95238.09;;;17.90;80.80
15405;BME280;7801;48.124;11.590;2022-09-09T01:01:51;95231.66;;;18.07;82.10
15405;BME280;7801;48.124;11.590;2022-09-09T01:04:25;95237.31;;;17.90;82.21
15405;BME280;7801;48.124;11.590;2022-09-09T01:07:06;95239.97;;;18.02;81.74
15405;BME280;7801;48.124;11.590;2022-09-09T01:09:54;95237.31;;;18.17;81.91
15405;BME280;7801;48.124;11.590;2022-09-09T01:14:56;95241.03;;;18.13;81.94
15405;BME280;7801;48.124;11.590;2022-09-09T01:17:34;95240.94;;;17.81;80.23
15405;BME280;7801;48.124;11.590;2022-09-09T01:20:05;95247.56;;;17.72;82.55
15405;BME280;7801;48.124;11.590;2022-09-09T01:28:00;95230.66;;;17.83;83.46
15405;BME280;7801;48.124;11.590;2022-09-09T01:30:37;95234.91;;;17.84;83.31
15405;BME280;7801;48.124;11.590;2022-09-09T01:33:03;95232.94;;;17.97;82.47
15405;BME280;7801;48.124;11.590;2022-09-09T01:35:44;95237.25;;;17.86;81.50
15405;BME280;7801;48.124;11.590;2022-09-09T01:38:17;95238.41;;;18.01;82.64
15405;BME280;7801;48.124;11.590;2022-09-09T01:40:44;95236.53;;;17.89;82.78
15405;BME280;7801;48.124;11.590;2022-09-09T01:43:11;95236.97;;;17.91;83.58
15405;BME280;7801;48.124;11.590;2022-09-09T01:45:38;95237.66;;;17.88;81.09
15405;BME280;7801;48.124;11.590;2022-09-09T01:48:05;95235.75;;;17.89;83.29
15405;BME280;7801;48.124;11.590;2022-09-09T01:50:32;95237.41;;;17.93;83.02
15405;BME280;7801;48.124;11.590;2022-09-09T01:52:59;95238.44;;;17.89;83.08
15405;BME280;7801;48.124;11.590;2022-09-09T01:55:33;95243.56;;;17.94;83.35
15405;BME280;7801;48.124;11.590;2022-09-09T02:03:54;95233.44;;;17.87;82.26
15405;BME280;7801;48.124;11.590;2022-09-09T02:06:33;95237.13;;;17.82;83.93
15405;BME280;7801;48.124;11.590;2022-09-09T02:09:02;95238.03;;;17.87;83.86
15405;BME280;7801;48.124;11.590;2022-09-09T02:11:33;95232.69;;;17.62;82.39
15405;BME280;7801;48.124;11.590;2022-09-09T02:14:06;95237.06;;;17.55;83.03
15405;BME280;7801;48.124;11.590;2022-09-09T02:16:49;95229.84;;;17.43;84.06
15405;BME280;7801;48.124;11.590;2022-09-09T02:19:36;95223.59;;;17.39;85.41
15405;BME280;7801;48.124;11.590;2022-09-09T02:22:05;95219.97;;;17.59;85.54
15405;BME280;7801;48.124;11.590;2022-09-09T02:24:39;95214.91;;;17.70;85.39
15405;BME280;7801;48.124;11.590;2022-09-09T02:27:08;95219.06;;;17.67;85.76
15405;BME280;7801;48.124;11.590;2022-09-09T02:29:39;95221.91;;;17.34;85.50
15405;BME280;7801;48.124;11.590;2022-09-09T02:32:10;95227.78;;;17.52;86.24
15405;BME280;7801;48.124;11.590;2022-09-09T02:34:42;95228.44;;;17.61;84.82
15405;BME280;7801;48.124;11.590;2022-09-09T02:37:09;95229.00;;;17.67;84.66
15405;BME280;7801;48.124;11.590;2022-09-09T02:39:36;95218.72;;;17.69;85.24
15405;BME280;7801;48.124;11.590;2022-09-09T02:42:05;95226.00;;;17.56;85.75
15405;BME280;7801;48.124;11.590;2022-09-09T02:44:33;95219.25;;;17.74;84.93
15405;BME280;7801;48.124;11.590;2022-09-09T02:47:26;95215.72;;;17.58;85.09
15405;BME280;7801;48.124;11.590;2022-09-09T02:50:19;95225.13;;;17.64;85.75
15405;BME280;7801;48.124;11.590;2022-09-09T02:55:47;95215.34;;;17.72;85.69
15405;BME280;7801;48.124;11.590;2022-09-09T02:58:17;95217.25;;;17.71;85.63
15405;BME280;7801;48.124;11.590;2022-09-09T03:00:49;95216.25;;;17.64;85.55
15405;BME280;7801;48.124;11.590;2022-09-09T03:03:17;95229.00;;;17.67;85.37
15405;BME280;7801;48.124;11.590;2022-09-09T03:05:43;95219.97;;;17.59;86.52
15405;BME280;7801;48.124;11.590;2022-09-09T03:08:09;95214.56;;;17.71;86.16
15405;BME280;7801;48.124;11.590;2022-09-09T03:10:35;95217.84;;;17.52;85.60
15405;BME280;7801;48.124;11.590;2022-09-09T03:13:03;95207.13;;;17.52;85.62
15405;BME280;7801;48.124;11.590;2022-09-09T03:15:35;95213.53;;;17.36;85.19
15405;BME280;7801;48.124;11.590;2022-09-09T03:18:02;95217.03;;;17.24;85.07
15405;BME280;7801;48.124;11.590;2022-09-09T03:20:28;95210.88;;;17.11;86.42
15405;BME280;7801;48.124;11.590;2022-09-09T03:22:56;95209.63;;;17.33;87.99
15405;BME280;7801;48.124;11.590;2022-09-09T03:25:25;95212.63;;;17.32;86.57
15405;BME280;7801;48.124;11.590;2022-09-09T03:27:52;95209.47;;;17.54;86.31
15405;BME280;7801;48.124;11.590;2022-09-09T03:30:20;95201.50;;;17.58;85.94
15405;BME280;7801;48.124;11.590;2022-09-09T03:32:47;95199.63;;;17.46;86.17
15405;BME280;7801;48.124;11.590;2022-09-09T03:35:14;95212.81;;;17.51;86.69
15405;BME280;7801;48.124;11.590;2022-09-09T03:37:41;95209.69;;;17.49;86.48
15405;BME280;7801;48.124;11.590;2022-09-09T03:40:09;95211.12;;;17.59;85.97
15405;BME280;7801;48.124;11.590;2022-09-09T03:42:37;95207.56;;;17.55;86.07
15405;BME280;7801;48.124;11.590;2022-09-09T03:45:06;95201.75;;;17.52;85.33
15405;BME280;7801;48.124;11.590;2022-09-09T03:47:35;95208.22;;;17.51;86.42
15405;BME280;7801;48.124;11.590;2022-09-09T03:50:01;95205.56;;;17.51;86.33
15405;BME280;7801;48.124;11.590;2022-09-09T03:52:27;95206.00;;;17.53;86.39
15405;BME280;7801;48.124;11.590;2022-09-09T03:54:54;95207.91;;;17.53;85.70
15405;BME280;7801;48.124;11.590;2022-09-09T03:57:21;95205.22;;;17.53;86.95
15405;BME280;7801;48.124;11.590;2022-09-09T03:59:47;95210.25;;;17.55;85.99
15405;BME280;7801;48.124;11.590;2022-09-09T04:02:12;95201.91;;;17.44;86.75
15405;BME280;7801;48.124;11.590;2022-09-09T04:04:37;95202.62;;;17.57;86.59
15405;BME280;7801;48.124;11.590;2022-09-09T04:07:05;95200.84;;;17.61;86.26
15405;BME280;7801;48.124;11.590;2022-09-09T04:09:33;95196.28;;;17.49;86.79
15405;BME280;7801;48.124;11.590;2022-09-09T04:12:00;95202.97;;;17.55;86.25
15405;BME280;7801;48.124;11.590;2022-09-09T04:14:25;95202.41;;;17.62;85.52
15405;BME280;7801;48.124;11.590;2022-09-09T04:16:54;95197.81;;;17.62;86.16
15405;BME280;7801;48.124;11.590;2022-09-09T04:19:19;95194.72;;;17.48;85.28
15405;BME280;7801;48.124;11.590;2022-09-09T04:21:45;95185.47;;;17.45;86.69
15405;BME280;7801;48.124;11.590;2022-09-09T04:24:12;95193.25;;;17.50;86.62
15405;BME280;7801;48.124;11.590;2022-09-09T04:26:38;95186.34;;;17.49;86.58
15405;BME280;7801;48.124;11.590;2022-09-09T04:29:06;95193.38;;;17.54;86.67
15405;BME280;7801;48.124;11.590;2022-09-09T04:31:33;95177.25;;;17.54;86.49
15405;BME280;7801;48.124;11.590;2022-09-09T04:33:58;95174.81;;;17.49;86.46
15405;BME280;7801;48.124;11.590;2022-09-09T04:36:27;95163.97;;;17.58;86.57
15405;BME280;7801;48.124;11.590;2022-09-09T04:38:53;95168.53;;;17.57;86.55
15405;BME280;7801;48.124;11.590;2022-09-09T04:41:23;95175.53;;;17.34;86.56
15405;BME280;7801;48.124;11.590;2022-09-09T04:43:50;95174.59;;;17.54;87.29
15405;BME280;7801;48.124;11.590;2022-09-09T04:46:27;95173.47;;;17.55;86.37
15405;BME280;7801;48.124;11.590;2022-09-09T04:48:53;95177.47;;;17.61;86.24
15405;BME280;7801;48.124;11.590;2022-09-09T04:51:27;95180.44;;;17.44;86.37
15405;BME280;7801;48.124;11.590;2022-09-09T04:53:53;95172.81;;;17.46;86.18
15405;BME280;7801;48.124;11.590;2022-09-09T04:56:34;95170.06;;;17.42;86.84
15405;BME280;7801;48.124;11.590;2022-09-09T04:59:02;95167.50;;;17.34;86.91
15405;BME280;7801;48.124;11.590;2022-09-09T05:01:30;95172.41;;;17.32;86.68
15405;BME280;7801;48.124;11.590;2022-09-09T05:03:58;95168.34;;;17.50;87.04
15405;BME280;7801;48.124;11.590;2022-09-09T05:06:24;95171.69;;;17.47;86.89
15405;BME280;7801;48.124;11.590;2022-09-09T05:08:51;95177.31;;;17.42;87.03
15405;BME280;7801;48.124;11.590;2022-09-09T05:11:27;95175.41;;;17.42;86.84
15405;BME280;7801;48.124;11.590;2022-09-09T05:13:54;95183.47;;;17.42;87.30
15405;BME280;7801;48.124;11.590;2022-09-09T05:16:29;95191.28;;;17.35;86.87
15405;BME280;7801;48.124;11.590;2022-09-09T05:18:55;95189.16;;;17.41;87.19
15405;BME280;7801;48.124;11.590;2022-09-09T05:21:25;95194.41;;;17.37;86.93
15405;BME280;7801;48.124;11.590;2022-09-09T05:23:53;95193.16;;;17.47;87.63
15405;BME280;7801;48.124;11.590;2022-09-09T05:26:26;95187.50;;;17.36;87.44
15405;BME280;7801;48.124;11.590;2022-09-09T05:28:55;95194.19;;;17.30;87.60
15405;BME280;7801;48.124;11.590;2022-09-09T05:31:22;95189.06;;;17.25;87.84
15405;BME280;7801;48.124;11.590;2022-09-09T05:33:52;95200.78;;;17.33;87.74
15405;BME280;7801;48.124;11.590;2022-09-09T05:36:23;95191.84;;;17.41;88.16
15405;BME280;7801;48.124;11.590;2022-09-09T05:38:52;95191.25;;;17.47;86.95
15405;BME280;7801;48.124;11.590;2022-09-09T05:41:32;95199.28;;;17.47;87.20
15405;BME280;7801;48.124;11.590;2022-09-09T05:43:58;95193.53;;;17.45;86.67
15405;BME280;7801;48.124;11.590;2022-09-09T05:46:28;95200.00;;;17.44;87.76
15405;BME280;7801;48.124;11.590;2022-09-09T05:48:54;95199.56;;;17.30;87.19
15405;BME280;7801;48.124;11.590;2022-09-09T05:51:25;95199.00;;;17.37;86.67
15405;BME280;7801;48.124;11.590;2022-09-09T05:53:52;95195.16;;;17.50;86.69
15405;BME280;7801;48.124;11.590;2022-09-09T05:56:29;95190.34;;;17.56;86.79
15405;BME280;7801;48.124;11.590;2022-09-09T05:58:56;95194.94;;;17.55;86.40
15405;BME280;7801;48.124;11.590;2022-09-09T06:01:29;95193.94;;;17.47;85.58
15405;BME280;7801;48.124;11.590;2022-09-09T06:03:55;95198.63;;;17.50;86.18
15405;BME280;7801;48.124;11.590;2022-09-09T06:06:26;95195.03;;;17.59;85.79
15405;BME280;7801;48.124;11.590;2022-09-09T06:08:54;95213.41;;;17.44;86.06
15405;BME280;7801;48.124;11.590;2022-09-09T06:11:27;95214.03;;;17.53;86.37
15405;BME280;7801;48.124;11.590;2022-09-09T06:13:57;95215.03;;;17.61;86.19
15405;BME280;7801;48.124;11.590;2022-09-09T06:16:25;95208.38;;;17.43;85.60
15405;BME280;7801;48.124;11.590;2022-09-09T06:18:52;95215.50;;;17.51;85.74
15405;BME280;7801;48.124;11.590;2022-09-09T06:21:26;95209.47;;;17.54;86.21
15405;BME280;7801;48.124;11.590;2022-09-09T06:24:10;95213.47;;;17.60;85.54
15405;BME280;7801;48.124;11.590;2022-09-09T06:26:40;95216.84;;;17.57;84.47
15405;BME280;7801;48.124;11.590;2022-09-09T06:29:06;95210.56;;;17.53;85.03
15405;BME280;7801;48.124;11.590;2022-09-09T06:31:34;95206.53;;;17.59;85.27
15405;BME280;7801;48.124;11.590;2022-09-09T06:34:05;95208.75;;;17.69;85.04
15405;BME280;7801;48.124;11.590;2022-09-09T06:36:38;95200.91;;;17.76;85.74
15405;BME280;7801;48.124;11.590;2022-09-09T06:39:05;95206.06;;;17.69;84.55
15405;BME280;7801;48.124;11.590;2022-09-09T06:41:33;95201.28;;;17.63;84.82
15405;BME280;7801;48.124;11.590;2022-09-09T06:43:59;95202.53;;;17.53;84.16
15405;BME280;7801;48.124;11.590;2022-09-09T06:46:28;95202.91;;;17.39;83.71
15405;BME280;7801;48.124;11.590;2022-09-09T06:48:57;95207.75;;;17.22;84.06
15405;BME280;7801;48.124;11.590;2022-09-09T06:51:27;95213.91;;;17.22;84.81
15405;BME280;7801;48.124;11.590;2022-09-09T06:54:00;95216.03;;;17.04;83.83
15405;BME280;7801;48.124;11.590;2022-09-09T06:56:32;95217.81;;;17.25;86.62
15405;BME280;7801;48.124;11.590;2022-09-09T06:59:01;95222.72;;;17.10;84.86
15405;BME280;7801;48.124;11.590;2022-09-09T07:01:33;95226.84;;;17.32;85.93
15405;BME280;7801;48.124;11.590;2022-09-09T07:04:01;95223.72;;;17.82;86.66
15405;BME280;7801;48.124;11.590;2022-09-09T07:06:31;95227.34;;;18.18;86.04
15405;BME280;7801;48.124;11.590;2022-09-09T07:09:01;95228.94;;;18.35;83.79
15405;BME280;7801;48.124;11.590;2022-09-09T07:11:32;95224.44;;;18.54;83.77
15405;BME280;7801;48.124;11.590;2022-09-09T07:14:01;95221.72;;;18.67;82.60
15405;BME280;7801;48.124;11.590;2022-09-09T07:16:32;95222.84;;;18.81;81.95
15405;BME280;7801;48.124;11.590;2022-09-09T07:19:01;95221.53;;;18.91;81.38
15405;BME280;7801;48.124;11.590;2022-09-09T07:21:31;95231.41;;;19.03;81.36
15405;BME280;7801;48.124;11.590;2022-09-09T07:23:58;95236.53;;;19.08;80.52
15405;BME280;7801;48.124;11.590;2022-09-09T07:26:26;95256.62;;;19.14;80.18
15405;BME280;7801;48.124;11.590;2022-09-09T07:28:53;95275.22;;;19.03;79.44
15405;BME280;7801;48.124;11.590;2022-09-09T07:31:31;95280.84;;;18.98;79.97
15405;BME280;7801;48.124;11.590;2022-09-09T07:34:00;95266.19;;;19.11;80.28
15405;BME280;7801;48.124;11.590;2022-09-09T07:36:33;95272.94;;;19.21;79.06
15405;BME280;7801;48.124;11.590;2022-09-09T07:39:04;95275.97;;;19.51;78.19
15405;BME280;7801;48.124;11.590;2022-09-09T07:41:36;95277.88;;;19.50;77.77
15405;BME280;7801;48.124;11.590;2022-09-09T07:44:15;95278.56;;;19.32;77.88
15405;BME280;7801;48.124;11.590;2022-09-09T07:46:42;95280.22;;;19.20;78.09
15405;BME280;7801;48.124;11.590;2022-09-09T07:49:10;95287.31;;;19.44;77.72
15405;BME280;7801;48.124;11.590;2022-09-09T07:51:39;95291.13;;;19.43;77.37
15405;BME280;7801;48.124;11.590;2022-09-09T07:54:10;95280.12;;;19.33;77.02
15405;BME280;7801;48.124;11.590;2022-09-09T07:56:39;95290.34;;;19.43;76.34
15405;BME280;7801;48.124;11.590;2022-09-09T07:59:06;95287.00;;;18.99;77.18
15405;BME280;7801;48.124;11.590;2022-09-09T08:01:34;95292.31;;;19.11;78.17
15405;BME280;7801;48.124;11.590;2022-09-09T08:04:07;95287.53;;;19.04;77.50
15405;BME280;7801;48.124;11.590;2022-09-09T08:06:39;95296.88;;;18.95;77.57
15405;BME280;7801;48.124;11.590;2022-09-09T08:09:06;95289.63;;;18.51;79.20
15405;BME280;7801;48.124;11.590;2022-09-09T08:11:34;95283.06;;;18.49;79.71
15405;BME280;7801;48.124;11.590;2022-09-09T08:14:02;95288.88;;;18.23;80.46
15405;BME280;7801;48.124;11.590;2022-09-09T08:16:30;95294.94;;;18.20;81.28
15405;BME280;7801;48.124;11.590;2022-09-09T08:18:56;95304.03;;;18.31;81.44
15405;BME280;7801;48.124;11.590;2022-09-09T08:21:29;95316.78;;;18.34;81.61
15405;BME280;7801;48.124;11.590;2022-09-09T08:23:59;95307.97;;;18.06;82.03
15405;BME280;7801;48.124;11.590;2022-09-09T08:26:31;95313.78;;;18.08;82.49
15405;BME280;7801;48.124;11.590;2022-09-09T08:28:59;95310.34;;;17.95;83.32
15405;BME280;7801;48.124;11.590;2022-09-09T08:31:28;95313.69;;;18.04;83.29
15405;BME280;7801;48.124;11.590;2022-09-09T08:33:53;95313.97;;;18.15;83.39
15405;BME280;7801;48.124;11.590;2022-09-09T08:36:31;95321.78;;;18.20;83.60
15405;BME280;7801;48.124;11.590;2022-09-09T08:38:59;95315.81;;;17.99;83.35
15405;BME280;7801;48.124;11.590;2022-09-09T08:52:30;95325.59;;;18.19;83.87
15405;BME280;7801;48.124;11.590;2022-09-09T08:57:49;95319.84;;;18.05;83.85
15405;BME280;7801;48.124;11.590;2022-09-09T09:00:19;95329.44;;;18.06;84.51
15405;BME280;7801;48.124;11.590;2022-09-09T09:03:21;95317.59;;;17.95;85.12
15405;BME280;7801;48.124;11.590;2022-09-09T09:06:04;95320.34;;;18.10;83.63
15405;BME280;7801;48.124;11.590;2022-09-09T09:08:39;95323.63;;;18.04;83.98
15405;BME280;7801;48.124;11.590;2022-09-09T09:11:20;95318.88;;;18.13;83.95
15405;BME280;7801;48.124;11.590;2022-09-09T09:16:55;95314.84;;;18.19;83.43
15405;BME280;7801;48.124;11.590;2022-09-09T09:19:23;95309.59;;;18.10;82.66
15405;BME280;7801;48.124;11.590;2022-09-09T09:22:00;95319.44;;;18.18;83.38
15405;BME280;7801;48.124;11.590;2022-09-09T09:27:24;95324.22;;;18.25;83.77
15405;BME280;7801;48.124;11.590;2022-09-09T09:29:51;95324.69;;;18.27;83.87
15405;BME280;7801;48.124;11.590;2022-09-09T09:32:23;95321.22;;;18.27;83.42
15405;BME280;7801;48.124;11.590;2022-09-09T09:34:55;95323.06;;;18.38;82.71
15405;BME280;7801;48.124;11.590;2022-09-09T09:37:49;95324.13;;;18.49;82.53
15405;BME280;7801;48.124;11.590;2022-09-09T09:40:19;95324.53;;;18.64;81.68
15405;BME280;7801;48.124;11.590;2022-09-09T09:42:55;95322.31;;;18.53;81.15
15405;BME280;7801;48.124;11.590;2022-09-09T09:45:43;95328.53;;;18.70;80.80
15405;BME280;7801;48.124;11.590;2022-09-09T09:48:11;95328.13;;;18.55;81.85
15405;BME280;7801;48.124;11.590;2022-09-09T09:53:32;95325.56;;;18.75;82.12
15405;BME280;7801;48.124;11.590;2022-09-09T09:56:05;95332.34;;;18.69;82.20
15405;BME280;7801;48.124;11.590;2022-09-09T09:58:52;95338.06;;;18.67;83.12
15405;BME280;7801;48.124;11.590;2022-09-09T10:04:22;95341.09;;;18.53;83.82
15405;BME280;7801;48.124;11.590;2022-09-09T10:06:51;95334.88;;;18.49;83.95
15405;BME280;7801;48.124;11.590;2022-09-09T10:09:30;95333.66;;;18.47;83.56
15405;BME280;7801;48.124;11.590;2022-09-09T10:27:03;95330.53;;;18.45;82.27
15405;BME280;7801;48.124;11.590;2022-09-09T10:29:53;95334.69;;;18.42;82.06
15405;BME280;7801;48.124;11.590;2022-09-09T10:32:45;95334.78;;;18.46;81.76
15405;BME280;7801;48.124;11.590;2022-09-09T10:38:27;95333.12;;;18.41;82.28
15405;BME280;7801;48.124;11.590;2022-09-09T10:43:57;95330.97;;;18.19;82.33
15405;BME280;7801;48.124;11.590;2022-09-09T10:55:16;95337.41;;;18.30;81.86
15405;BME280;7801;48.124;11.590;2022-09-09T10:57:48;95339.16;;;18.38;81.41
15405;BME280;7801;48.124;11.590;2022-09-09T11:00:44;95333.94;;;18.30;81.78
15405;BME280;7801;48.124;11.590;2022-09-09T11:03:20;95340.34;;;18.25;81.53
15405;BME280;7801;48.124;11.590;2022-09-09T11:05:53;95338.38;;;18.38;81.06
15405;BME280;7801;48.124;11.590;2022-09-09T11:08:26;95334.88;;;18.49;80.57
15405;BME280;7801;48.124;11.590;2022-09-09T11:11:06;95337.28;;;18.67;81.73
15405;BME280;7801;48.124;11.590;2022-09-09T11:14:26;95329.78;;;18.88;81.66
15405;BME280;7801;48.124;11.590;2022-09-09T11:17:00;95331.25;;;19.01;80.93
15405;BME280;7801;48.124;11.590;2022-09-09T11:19:42;95332.12;;;19.05;79.02
15405;BME280;7801;48.124;11.590;2022-09-09T11:22:32;95333.22;;;19.36;79.68
15405;BME280;7801;48.124;11.590;2022-09-09T11:31:11;95324.97;;;18.66;79.51
15405;BME280;7801;48.124;11.590;2022-09-09T11:42:33;95323.56;;;18.72;78.48
15405;BME280;7801;48.124;11.590;2022-09-09T11:45:26;95321.44;;;18.93;79.32
15405;BME280;7801;48.124;11.590;2022-09-09T11:48:00;95326.47;;;18.79;79.86
15405;BME280;7801;48.124;11.590;2022-09-09T11:50:44;95320.47;;;18.70;78.03
15405;BME280;7801;48.124;11.590;2022-09-09T11:53:19;95314.81;;;18.75;77.74
15405;BME280;7801;48.124;11.590;2022-09-09T11:56:04;95317.62;;;18.94;77.80
15405;BME280;7801;48.124;11.590;2022-09-09T11:58:40;95316.34;;;19.04;76.18
15405;BME280;7801;48.124;11.590;2022-09-09T12:07:57;95326.50;;;19.10;75.32
15405;BME280;7801;48.124;11.590;2022-09-09T12:10:34;95326.22;;;19.00;75.42
15405;BME280;7801;48.124;11.590;2022-09-09T12:16:36;95320.75;;;19.28;77.01
15405;BME280;7801;48.124;11.590;2022-09-09T12:19:16;95326.47;;;19.42;73.65
15405;BME280;7801;48.124;11.590;2022-09-09T12:21:49;95328.56;;;19.33;73.86
15405;BME280;7801;48.124;11.590;2022-09-09T12:24:29;95314.81;;;19.38;73.70
15405;BME280;7801;48.124;11.590;2022-09-09T12:32:16;95307.53;;;19.54;72.60
15405;BME280;7801;48.124;11.590;2022-09-09T12:34:58;95314.41;;;19.51;72.89
15405;BME280;7801;48.124;11.590;2022-09-09T12:37:37;95313.87;;;19.62;72.34
15405;BME280;7801;48.124;11.590;2022-09-09T12:40:22;95313.87;;;19.62;72.51
15405;BME280;7801;48.124;11.590;2022-09-09T12:42:49;95296.78;;;19.38;72.99
15405;BME280;7801;48.124;11.590;2022-09-09T12:45:20;95298.28;;;19.51;73.19
15405;BME280;7801;48.124;11.590;2022-09-09T12:47:56;95301.19;;;19.62;72.47
15405;BME280;7801;48.124;11.590;2022-09-09T12:50:28;95299.63;;;19.61;72.71
15405;BME280;7801;48.124;11.590;2022-09-09T12:53:10;95301.78;;;19.71;73.39
15405;BME280;7801;48.124;11.590;2022-09-09T12:55:49;95296.84;;;19.73;73.92
15405;BME280;7801;48.124;11.590;2022-09-09T12:58:17;95296.53;;;19.78;73.23
15405;BME280;7801;48.124;11.590;2022-09-09T13:00:53;95292.28;;;19.77;73.54
15405;BME280;7801;48.124;11.590;2022-09-09T13:03:21;95287.53;;;19.71;74.93
15405;BME280;7801;48.124;11.590;2022-09-09T13:05:47;95293.75;;;19.75;73.68
15405;BME280;7801;48.124;11.590;2022-09-09T13:08:15;95284.09;;;19.54;73.97
15405;BME280;7801;48.124;11.590;2022-09-09T13:10:57;95282.63;;;19.57;74.55
15405;BME280;7801;48.124;11.590;2022-09-09T13:13:41;95279.09;;;19.53;74.33
15405;BME280;7801;48.124;11.590;2022-09-09T13:16:37;95284.09;;;19.54;74.98
15405;BME280;7801;48.124;11.590;2022-09-09T13:19:14;95277.06;;;19.34;74.90
15405;BME280;7801;48.124;11.590;2022-09-09T13:21:42;95274.75;;;19.33;74.43
15405;BME280;7801;48.124;11.590;2022-09-09T13:24:40;95274.03;;;19.36;74.75
15405;BME280;7801;48.124;11.590;2022-09-09T13:27:33;95270.13;;;19.49;74.19
15405;BME280;7801;48.124;11.590;2022-09-09T13:30:01;95260.37;;;19.60;73.57
15405;BME280;7801;48.124;11.590;2022-09-09T13:32:28;95263.94;;;19.64;73.64
15405;BME280;7801;48.124;11.590;2022-09-09T13:34:59;95260.37;;;19.60;73.87
15405;BME280;7801;48.124;11.590;2022-09-09T13:37:37;95254.72;;;19.65;74.02
15405;BME280;7801;48.124;11.590;2022-09-09T13:40:14;95257.97;;;19.55;74.27
15405;BME280;7801;48.124;11.590;2022-09-09T13:42:44;95259.19;;;19.42;73.42
15405;BME280;7801;48.124;11.590;2022-09-09T13:45:18;95249.91;;;19.39;73.41
15405;BME280;7801;48.124;11.590;2022-09-09T13:47:49;95257.84;;;19.32;73.31
15405;BME280;7801;48.124;11.590;2022-09-09T13:50:30;95252.50;;;19.36;72.91
15405;BME280;7801;48.124;11.590;2022-09-09T13:52:58;95252.37;;;19.29;73.74
15405;BME280;7801;48.124;11.590;2022-09-09T13:55:30;95243.81;;;19.07;75.10
15405;BME280;7801;48.124;11.590;2022-09-09T13:57:59;95248.06;;;19.08;75.22
15405;BME280;7801;48.124;11.590;2022-09-09T14:00:33;95236.63;;;19.11;74.58
15405;BME280;7801;48.124;11.590;2022-09-09T14:03:00;95237.31;;;19.08;75.23
15405;BME280;7801;48.124;11.590;2022-09-09T14:05:31;95240.34;;;19.07;75.49
15405;BME280;7801;48.124;11.590;2022-09-09T14:07:58;95233.44;;;18.90;76.37
15405;BME280;7801;48.124;11.590;2022-09-09T14:10:26;95237.69;;;18.91;77.10
15405;BME280;7801;48.124;11.590;2022-09-09T14:12:53;95241.12;;;19.07;76.36
15405;BME280;7801;48.124;11.590;2022-09-09T14:15:22;95241.03;;;19.04;76.08
15405;BME280;7801;48.124;11.590;2022-09-09T14:17:49;95238.00;;;19.05;75.53
15405;BME280;7801;48.124;11.590;2022-09-09T14:20:16;95244.84;;;19.03;76.05
15405;BME280;7801;48.124;11.590;2022-09-09T14:22:44;95250.69;;;18.89;76.58
15405;BME280;7801;48.124;11.590;2022-09-09T14:25:11;95243.66;;;18.84;76.87
15405;BME280;7801;48.124;11.590;2022-09-09T14:27:39;95249.81;;;18.85;76.79
15405;BME280;7801;48.124;11.590;2022-09-09T14:30:05;95243.91;;;18.95;76.76
15405;BME280;7801;48.124;11.590;2022-09-09T14:32:31;95248.00;;;18.89;76.65
15405;BME280;7801;48.124;11.590;2022-09-09T14:34:56;95244.94;;;19.06;76.01
15405;BME280;7801;48.124;11.590;2022-09-09T14:37:26;95252.47;;;19.01;76.63
15405;BME280;7801;48.124;11.590;2022-09-09T14:39:56;95254.41;;;18.84;76.96
15405;BME280;7801;48.124;11.590;2022-09-09T14:42:23;95255.34;;;18.92;76.33
15405;BME280;7801;48.124;11.590;2022-09-09T14:44:49;95253.97;;;18.98;75.96
15405;BME280;7801;48.124;11.590;2022-09-09T14:47:14;95248.00;;;18.89;76.17
15405;BME280;7801;48.124;11.590;2022-09-09T14:49:39;95252.25;;;18.90;76.46
15405;BME280;7801;48.124;11.590;2022-09-09T14:52:05;95264.72;;;18.98;76.23
15405;BME280;7801;48.124;11.590;2022-09-09T14:54:32;95266.81;;;18.89;77.00
15405;BME280;7801;48.124;11.590;2022-09-09T14:56:59;95273.81;;;18.94;76.58
15405;BME280;7801;48.124;11.590;2022-09-09T14:59:24;95265.41;;;18.95;76.56
15405;BME280;7801;48.124;11.590;2022-09-09T15:01:56;95266.53;;;18.94;75.65
15405;BME280;7801;48.124;11.590;2022-09-09T15:04:23;95260.72;;;18.92;75.68
15405;BME280;7801;48.124;11.590;2022-09-09T15:06:50;95259.50;;;19.05;75.45
15405;BME280;7801;48.124;11.590;2022-09-09T15:09:20;95268.00;;;19.07;75.16
15405;BME280;7801;48.124;11.590;2022-09-09T15:11:46;95264.28;;;18.96;75.27
15405;BME280;7801;48.124;11.590;2022-09-09T15:14:11;95260.03;;;18.95;75.29
15405;BME280;7801;48.124;11.590;2022-09-09T15:16:39;95257.34;;;18.95;75.32
15405;BME280;7801;48.124;11.590;2022-09-09T15:19:07;95258.03;;;18.92;74.52
15405;BME280;7801;48.124;11.590;2022-09-09T15:21:37;95262.38;;;18.81;74.08
15405;BME280;7801;48.124;11.590;2022-09-09T15:24:06;95257.44;;;18.83;74.60
15405;BME280;7801;48.124;11.590;2022-09-09T15:26:35;95255.34;;;18.92;74.60
15405;BME280;7801;48.124;11.590;2022-09-09T15:29:04;95256.75;;;18.86;75.63
15405;BME280;7801;48.124;11.590;2022-09-09T15:31:30;95247.00;;;18.97;74.93